Saint Louis, Missouri
Traffic Map
Current Weather Conditions
Saint Louis, Missouri
Broken Clouds
Broken Clouds
24°
Feels Like: 24°
Wind Chill: 24° Ceiling: 2600
Heat Index: 24° Visibility: 10mi
Dew Point: 22° Wind: 7mph
Humidity: 87% Direction: 170° (S)
Pressure: 29.89in Gusts: 0mph
Raw Report DataKCPS 011102Z AUTO 17006KT 10SM BKN026 24/22 A2989 RMK AO2 T02440222 TSNO $
Traffic Incident Summary
Active as of:
Severity:
Category:
InformationThere was an issue retrieving the traffic information for this location. Please try a different location or try again shortly.
Advertisements
Track Severe Weather on mobile